sensor_id;sensor_type;location;lat;lon;timestamp;P1;durP1;ratioP1;P2;durP2;ratioP2
77705;SDS011;66874;45.274;5.880;2023-06-22T00:00:50;8.93;;;4.13;;
77705;SDS011;66874;45.274;5.880;2023-06-22T00:03:20;9.87;;;4.40;;
77705;SDS011;66874;45.274;5.880;2023-06-22T00:05:47;9.85;;;3.92;;
77705;SDS011;66874;45.274;5.880;2023-06-22T00:08:14;12.50;;;5.00;;
77705;SDS011;66874;45.274;5.880;2023-06-22T00:10:40;13.27;;;4.57;;
77705;SDS011;66874;45.274;5.880;2023-06-22T00:13:06;10.23;;;4.30;;
77705;SDS011;66874;45.274;5.880;2023-06-22T00:15:33;9.60;;;4.05;;
77705;SDS011;66874;45.274;5.880;2023-06-22T00:17:58;11.02;;;4.22;;
77705;SDS011;66874;45.274;5.880;2023-06-22T00:20:24;11.05;;;4.00;;
77705;SDS011;66874;45.274;5.880;2023-06-22T00:22:56;8.95;;;4.80;;
77705;SDS011;66874;45.274;5.880;2023-06-22T00:25:22;10.65;;;4.20;;
77705;SDS011;66874;45.274;5.880;2023-06-22T00:27:48;11.95;;;3.85;;
77705;SDS011;66874;45.274;5.880;2023-06-22T00:30:17;14.50;;;4.40;;
77705;SDS011;66874;45.274;5.880;2023-06-22T00:32:44;10.68;;;3.95;;
77705;SDS011;66874;45.274;5.880;2023-06-22T00:35:10;13.35;;;4.10;;
77705;SDS011;66874;45.274;5.880;2023-06-22T00:40:03;7.68;;;3.97;;
77705;SDS011;66874;45.274;5.880;2023-06-22T00:42:30;12.02;;;4.05;;
77705;SDS011;66874;45.274;5.880;2023-06-22T00:44:55;6.53;;;4.07;;
77705;SDS011;66874;45.274;5.880;2023-06-22T00:47:21;14.10;;;4.63;;
77705;SDS011;66874;45.274;5.880;2023-06-22T00:49:47;12.45;;;5.00;;
77705;SDS011;66874;45.274;5.880;2023-06-22T00:52:16;12.15;;;4.43;;
77705;SDS011;66874;45.274;5.880;2023-06-22T00:54:49;12.25;;;4.35;;
77705;SDS011;66874;45.274;5.880;2023-06-22T00:57:16;15.70;;;4.57;;
77705;SDS011;66874;45.274;5.880;2023-06-22T00:59:44;10.57;;;4.22;;
77705;SDS011;66874;45.274;5.880;2023-06-22T01:02:10;11.47;;;5.50;;
77705;SDS011;66874;45.274;5.880;2023-06-22T01:04:36;14.30;;;4.78;;
77705;SDS011;66874;45.274;5.880;2023-06-22T01:10:07;11.50;;;4.53;;
77705;SDS011;66874;45.274;5.880;2023-06-22T01:12:43;12.07;;;4.90;;
77705;SDS011;66874;45.274;5.880;2023-06-22T01:18:08;13.13;;;4.80;;
77705;SDS011;66874;45.274;5.880;2023-06-22T01:20:35;10.23;;;5.05;;
77705;SDS011;66874;45.274;5.880;2023-06-22T01:25:47;22.40;;;5.40;;
77705;SDS011;66874;45.274;5.880;2023-06-22T01:28:24;11.77;;;4.60;;
77705;SDS011;66874;45.274;5.880;2023-06-22T01:30:56;8.00;;;4.88;;
77705;SDS011;66874;45.274;5.880;2023-06-22T01:33:34;20.63;;;5.50;;
77705;SDS011;66874;45.274;5.880;2023-06-22T01:36:02;10.57;;;4.60;;
77705;SDS011;66874;45.274;5.880;2023-06-22T01:38:29;10.13;;;4.37;;
77705;SDS011;66874;45.274;5.880;2023-06-22T01:40:55;11.98;;;5.13;;
77705;SDS011;66874;45.274;5.880;2023-06-22T01:43:22;13.25;;;5.50;;
77705;SDS011;66874;45.274;5.880;2023-06-22T01:45:50;13.02;;;5.57;;
77705;SDS011;66874;45.274;5.880;2023-06-22T01:48:16;12.02;;;5.07;;
77705;SDS011;66874;45.274;5.880;2023-06-22T01:50:43;10.40;;;4.97;;
77705;SDS011;66874;45.274;5.880;2023-06-22T01:53:08;14.38;;;4.70;;
77705;SDS011;66874;45.274;5.880;2023-06-22T01:55:33;10.27;;;5.05;;
77705;SDS011;66874;45.274;5.880;2023-06-22T01:57:59;14.35;;;4.72;;
77705;SDS011;66874;45.274;5.880;2023-06-22T02:00:25;12.07;;;4.78;;
77705;SDS011;66874;45.274;5.880;2023-06-22T02:02:54;16.00;;;5.15;;
77705;SDS011;66874;45.274;5.880;2023-06-22T02:05:25;11.82;;;4.20;;
77705;SDS011;66874;45.274;5.880;2023-06-22T02:08:01;11.48;;;5.18;;
77705;SDS011;66874;45.274;5.880;2023-06-22T02:10:31;14.88;;;5.00;;
77705;SDS011;66874;45.274;5.880;2023-06-22T02:15:25;11.18;;;4.53;;
77705;SDS011;66874;45.274;5.880;2023-06-22T02:17:51;11.68;;;4.32;;
77705;SDS011;66874;45.274;5.880;2023-06-22T02:20:17;11.55;;;5.55;;
77705;SDS011;66874;45.274;5.880;2023-06-22T02:22:43;12.40;;;5.13;;
77705;SDS011;66874;45.274;5.880;2023-06-22T02:25:08;15.13;;;6.20;;
77705;SDS011;66874;45.274;5.880;2023-06-22T02:27:34;14.23;;;5.20;;
77705;SDS011;66874;45.274;5.880;2023-06-22T02:29:59;17.05;;;4.95;;
77705;SDS011;66874;45.274;5.880;2023-06-22T02:32:25;10.93;;;5.50;;
77705;SDS011;66874;45.274;5.880;2023-06-22T02:34:52;18.63;;;7.50;;
77705;SDS011;66874;45.274;5.880;2023-06-22T02:37:18;11.32;;;4.53;;
77705;SDS011;66874;45.274;5.880;2023-06-22T02:39:43;10.73;;;5.00;;
77705;SDS011;66874;45.274;5.880;2023-06-22T02:42:09;14.32;;;4.90;;
77705;SDS011;66874;45.274;5.880;2023-06-22T02:44:37;11.27;;;5.22;;
77705;SDS011;66874;45.274;5.880;2023-06-22T02:47:03;20.17;;;5.78;;
77705;SDS011;66874;45.274;5.880;2023-06-22T02:49:28;12.95;;;5.50;;
77705;SDS011;66874;45.274;5.880;2023-06-22T02:51:54;9.45;;;4.70;;
77705;SDS011;66874;45.274;5.880;2023-06-22T02:54:20;13.85;;;5.35;;
77705;SDS011;66874;45.274;5.880;2023-06-22T02:56:45;12.00;;;5.72;;
77705;SDS011;66874;45.274;5.880;2023-06-22T02:59:11;20.85;;;6.03;;
77705;SDS011;66874;45.274;5.880;2023-06-22T03:01:37;17.83;;;5.72;;
77705;SDS011;66874;45.274;5.880;2023-06-22T03:04:05;11.18;;;5.07;;
77705;SDS011;66874;45.274;5.880;2023-06-22T03:06:31;13.15;;;6.05;;
77705;SDS011;66874;45.274;5.880;2023-06-22T03:08:59;10.82;;;5.45;;
77705;SDS011;66874;45.274;5.880;2023-06-22T03:11:26;13.55;;;4.93;;
77705;SDS011;66874;45.274;5.880;2023-06-22T03:13:51;13.40;;;5.57;;
77705;SDS011;66874;45.274;5.880;2023-06-22T03:16:18;14.98;;;5.10;;
77705;SDS011;66874;45.274;5.880;2023-06-22T03:18:44;12.40;;;4.85;;
77705;SDS011;66874;45.274;5.880;2023-06-22T03:21:09;10.75;;;5.88;;
77705;SDS011;66874;45.274;5.880;2023-06-22T03:23:35;13.73;;;4.85;;
77705;SDS011;66874;45.274;5.880;2023-06-22T03:26:01;14.07;;;5.18;;
77705;SDS011;66874;45.274;5.880;2023-06-22T03:28:27;8.65;;;4.60;;
77705;SDS011;66874;45.274;5.880;2023-06-22T03:30:52;12.48;;;6.40;;
77705;SDS011;66874;45.274;5.880;2023-06-22T03:33:17;12.60;;;5.15;;
77705;SDS011;66874;45.274;5.880;2023-06-22T03:35:43;13.57;;;5.57;;
77705;SDS011;66874;45.274;5.880;2023-06-22T03:38:08;15.45;;;5.28;;
77705;SDS011;66874;45.274;5.880;2023-06-22T03:40:34;13.27;;;5.82;;
77705;SDS011;66874;45.274;5.880;2023-06-22T03:42:59;13.25;;;5.22;;
77705;SDS011;66874;45.274;5.880;2023-06-22T03:45:24;19.80;;;5.72;;
77705;SDS011;66874;45.274;5.880;2023-06-22T03:47:50;16.00;;;5.70;;
77705;SDS011;66874;45.274;5.880;2023-06-22T03:50:15;16.38;;;6.47;;
77705;SDS011;66874;45.274;5.880;2023-06-22T03:52:40;16.52;;;6.05;;
77705;SDS011;66874;45.274;5.880;2023-06-22T03:55:06;14.18;;;6.10;;
77705;SDS011;66874;45.274;5.880;2023-06-22T03:57:32;15.05;;;6.68;;
77705;SDS011;66874;45.274;5.880;2023-06-22T03:59:58;15.38;;;5.70;;
77705;SDS011;66874;45.274;5.880;2023-06-22T04:02:24;16.40;;;5.50;;
77705;SDS011;66874;45.274;5.880;2023-06-22T04:04:50;19.25;;;6.80;;
77705;SDS011;66874;45.274;5.880;2023-06-22T04:07:16;16.17;;;6.18;;
77705;SDS011;66874;45.274;5.880;2023-06-22T04:09:43;12.73;;;5.53;;
77705;SDS011;66874;45.274;5.880;2023-06-22T04:12:08;16.85;;;6.18;;
77705;SDS011;66874;45.274;5.880;2023-06-22T04:14:34;12.40;;;5.60;;
77705;SDS011;66874;45.274;5.880;2023-06-22T04:16:59;14.45;;;5.32;;
77705;SDS011;66874;45.274;5.880;2023-06-22T04:19:24;11.43;;;6.03;;
77705;SDS011;66874;45.274;5.880;2023-06-22T04:21:50;13.70;;;5.03;;
77705;SDS011;66874;45.274;5.880;2023-06-22T04:24:15;12.95;;;5.68;;
77705;SDS011;66874;45.274;5.880;2023-06-22T04:26:41;12.15;;;5.15;;
77705;SDS011;66874;45.274;5.880;2023-06-22T04:29:07;13.07;;;5.63;;
77705;SDS011;66874;45.274;5.880;2023-06-22T04:31:36;14.45;;;5.93;;
77705;SDS011;66874;45.274;5.880;2023-06-22T04:34:03;17.52;;;6.18;;
77705;SDS011;66874;45.274;5.880;2023-06-22T04:36:36;20.60;;;8.57;;
77705;SDS011;66874;45.274;5.880;2023-06-22T04:39:06;16.00;;;5.97;;
77705;SDS011;66874;45.274;5.880;2023-06-22T04:41:34;14.30;;;7.03;;
77705;SDS011;66874;45.274;5.880;2023-06-22T04:44:13;17.67;;;7.22;;
77705;SDS011;66874;45.274;5.880;2023-06-22T04:46:59;20.30;;;6.97;;
77705;SDS011;66874;45.274;5.880;2023-06-22T04:49:28;23.90;;;7.05;;
77705;SDS011;66874;45.274;5.880;2023-06-22T04:52:00;20.73;;;6.47;;
77705;SDS011;66874;45.274;5.880;2023-06-22T04:54:26;18.30;;;6.57;;
77705;SDS011;66874;45.274;5.880;2023-06-22T04:56:52;12.57;;;6.53;;
77705;SDS011;66874;45.274;5.880;2023-06-22T04:59:24;20.02;;;6.45;;
77705;SDS011;66874;45.274;5.880;2023-06-22T05:02:00;16.88;;;6.05;;
77705;SDS011;66874;45.274;5.880;2023-06-22T05:04:28;17.92;;;6.78;;
77705;SDS011;66874;45.274;5.880;2023-06-22T05:06:56;20.40;;;6.78;;
77705;SDS011;66874;45.274;5.880;2023-06-22T05:09:22;16.50;;;5.77;;
77705;SDS011;66874;45.274;5.880;2023-06-22T05:11:49;15.88;;;6.45;;
77705;SDS011;66874;45.274;5.880;2023-06-22T05:14:15;14.88;;;5.97;;
77705;SDS011;66874;45.274;5.880;2023-06-22T05:16:41;16.25;;;6.32;;
77705;SDS011;66874;45.274;5.880;2023-06-22T05:19:07;14.63;;;6.28;;
77705;SDS011;66874;45.274;5.880;2023-06-22T05:21:33;13.15;;;5.53;;
77705;SDS011;66874;45.274;5.880;2023-06-22T05:23:59;10.82;;;5.15;;
77705;SDS011;66874;45.274;5.880;2023-06-22T05:26:27;14.90;;;5.55;;
77705;SDS011;66874;45.274;5.880;2023-06-22T05:28:58;12.02;;;5.85;;
77705;SDS011;66874;45.274;5.880;2023-06-22T05:31:24;20.63;;;5.70;;
77705;SDS011;66874;45.274;5.880;2023-06-22T05:33:51;17.85;;;6.30;;
77705;SDS011;66874;45.274;5.880;2023-06-22T05:36:18;16.55;;;5.03;;
77705;SDS011;66874;45.274;5.880;2023-06-22T05:38:50;10.88;;;5.03;;
77705;SDS011;66874;45.274;5.880;2023-06-22T05:41:19;12.82;;;5.72;;
77705;SDS011;66874;45.274;5.880;2023-06-22T05:43:44;12.43;;;5.80;;
77705;SDS011;66874;45.274;5.880;2023-06-22T05:46:09;19.27;;;7.20;;
77705;SDS011;66874;45.274;5.880;2023-06-22T05:48:35;14.25;;;6.22;;
77705;SDS011;66874;45.274;5.880;2023-06-22T05:51:00;13.25;;;5.70;;
77705;SDS011;66874;45.274;5.880;2023-06-22T05:53:26;16.95;;;5.78;;
77705;SDS011;66874;45.274;5.880;2023-06-22T05:55:51;18.23;;;5.90;;
77705;SDS011;66874;45.274;5.880;2023-06-22T05:58:17;17.95;;;5.97;;
77705;SDS011;66874;45.274;5.880;2023-06-22T06:00:42;14.18;;;4.90;;
77705;SDS011;66874;45.274;5.880;2023-06-22T06:03:08;13.88;;;6.25;;
77705;SDS011;66874;45.274;5.880;2023-06-22T06:05:34;12.43;;;6.20;;
77705;SDS011;66874;45.274;5.880;2023-06-22T06:08:00;15.68;;;6.15;;
77705;SDS011;66874;45.274;5.880;2023-06-22T06:10:26;14.95;;;6.20;;
77705;SDS011;66874;45.274;5.880;2023-06-22T06:12:52;18.30;;;7.38;;
77705;SDS011;66874;45.274;5.880;2023-06-22T06:15:18;20.25;;;6.82;;
77705;SDS011;66874;45.274;5.880;2023-06-22T06:17:50;22.83;;;8.05;;
77705;SDS011;66874;45.274;5.880;2023-06-22T06:20:20;18.73;;;6.82;;
77705;SDS011;66874;45.274;5.880;2023-06-22T06:22:47;14.48;;;5.65;;
77705;SDS011;66874;45.274;5.880;2023-06-22T06:25:13;15.57;;;5.85;;
77705;SDS011;66874;45.274;5.880;2023-06-22T06:27:44;14.27;;;5.85;;
77705;SDS011;66874;45.274;5.880;2023-06-22T06:30:11;13.30;;;6.68;;
77705;SDS011;66874;45.274;5.880;2023-06-22T06:32:38;14.75;;;5.35;;
77705;SDS011;66874;45.274;5.880;2023-06-22T06:35:08;14.25;;;5.80;;
77705;SDS011;66874;45.274;5.880;2023-06-22T06:37:41;16.52;;;6.10;;
77705;SDS011;66874;45.274;5.880;2023-06-22T06:40:08;15.90;;;5.65;;
77705;SDS011;66874;45.274;5.880;2023-06-22T06:45:20;18.52;;;6.20;;
77705;SDS011;66874;45.274;5.880;2023-06-22T06:47:50;11.38;;;5.13;;
77705;SDS011;66874;45.274;5.880;2023-06-22T06:50:17;11.80;;;5.53;;
77705;SDS011;66874;45.274;5.880;2023-06-22T06:52:43;16.30;;;6.60;;
77705;SDS011;66874;45.274;5.880;2023-06-22T06:55:09;17.13;;;5.68;;
77705;SDS011;66874;45.274;5.880;2023-06-22T06:57:37;16.60;;;5.45;;
77705;SDS011;66874;45.274;5.880;2023-06-22T07:00:04;15.38;;;6.13;;
77705;SDS011;66874;45.274;5.880;2023-06-22T07:02:34;16.65;;;6.05;;
77705;SDS011;66874;45.274;5.880;2023-06-22T07:05:00;13.68;;;5.88;;
77705;SDS011;66874;45.274;5.880;2023-06-22T07:07:25;15.93;;;7.72;;
77705;SDS011;66874;45.274;5.880;2023-06-22T07:09:51;19.08;;;5.75;;
77705;SDS011;66874;45.274;5.880;2023-06-22T07:12:16;14.20;;;5.50;;
77705;SDS011;66874;45.274;5.880;2023-06-22T07:14:41;15.02;;;5.55;;
77705;SDS011;66874;45.274;5.880;2023-06-22T07:17:07;15.60;;;5.63;;
77705;SDS011;66874;45.274;5.880;2023-06-22T07:19:32;10.32;;;5.28;;
77705;SDS011;66874;45.274;5.880;2023-06-22T07:21:58;20.08;;;6.93;;
77705;SDS011;66874;45.274;5.880;2023-06-22T07:24:23;18.75;;;6.78;;
77705;SDS011;66874;45.274;5.880;2023-06-22T07:26:49;46.95;;;9.52;;
77705;SDS011;66874;45.274;5.880;2023-06-22T07:29:19;15.00;;;7.07;;
77705;SDS011;66874;45.274;5.880;2023-06-22T07:31:46;41.20;;;10.07;;
77705;SDS011;66874;45.274;5.880;2023-06-22T07:34:12;48.60;;;10.27;;
77705;SDS011;66874;45.274;5.880;2023-06-22T07:36:38;19.58;;;6.50;;
77705;SDS011;66874;45.274;5.880;2023-06-22T07:39:03;17.83;;;5.93;;
77705;SDS011;66874;45.274;5.880;2023-06-22T07:41:29;19.15;;;7.05;;
77705;SDS011;66874;45.274;5.880;2023-06-22T07:43:55;13.85;;;5.88;;
77705;SDS011;66874;45.274;5.880;2023-06-22T07:46:20;11.18;;;5.45;;
77705;SDS011;66874;45.274;5.880;2023-06-22T07:48:46;15.80;;;5.53;;
77705;SDS011;66874;45.274;5.880;2023-06-22T07:51:11;11.75;;;5.47;;
77705;SDS011;66874;45.274;5.880;2023-06-22T07:53:42;14.07;;;5.10;;
77705;SDS011;66874;45.274;5.880;2023-06-22T07:56:11;15.63;;;4.60;;
77705;SDS011;66874;45.274;5.880;2023-06-22T07:58:37;12.10;;;5.85;;
77705;SDS011;66874;45.274;5.880;2023-06-22T08:01:02;15.57;;;5.38;;
77705;SDS011;66874;45.274;5.880;2023-06-22T08:03:28;10.00;;;4.50;;
77705;SDS011;66874;45.274;5.880;2023-06-22T08:05:54;16.52;;;5.20;;
77705;SDS011;66874;45.274;5.880;2023-06-22T08:08:19;17.92;;;5.22;;
77705;SDS011;66874;45.274;5.880;2023-06-22T08:10:45;16.85;;;4.45;;
77705;SDS011;66874;45.274;5.880;2023-06-22T08:13:10;11.50;;;3.72;;
77705;SDS011;66874;45.274;5.880;2023-06-22T08:15:36;9.75;;;3.72;;
77705;SDS011;66874;45.274;5.880;2023-06-22T08:18:01;19.15;;;4.75;;
77705;SDS011;66874;45.274;5.880;2023-06-22T08:20:27;16.08;;;4.38;;
77705;SDS011;66874;45.274;5.880;2023-06-22T08:22:53;13.45;;;3.33;;
77705;SDS011;66874;45.274;5.880;2023-06-22T08:25:19;7.28;;;3.40;;
77705;SDS011;66874;45.274;5.880;2023-06-22T08:27:45;10.70;;;3.28;;
77705;SDS011;66874;45.274;5.880;2023-06-22T08:30:12;17.05;;;5.03;;
77705;SDS011;66874;45.274;5.880;2023-06-22T08:32:38;11.70;;;3.95;;
77705;SDS011;66874;45.274;5.880;2023-06-22T08:35:03;16.23;;;4.15;;
77705;SDS011;66874;45.274;5.880;2023-06-22T08:39:56;6.70;;;3.45;;
77705;SDS011;66874;45.274;5.880;2023-06-22T08:42:23;10.07;;;3.42;;
77705;SDS011;66874;45.274;5.880;2023-06-22T08:44:50;12.52;;;3.47;;
77705;SDS011;66874;45.274;5.880;2023-06-22T08:47:15;9.63;;;2.95;;
77705;SDS011;66874;45.274;5.880;2023-06-22T08:49:40;9.38;;;3.35;;
77705;SDS011;66874;45.274;5.880;2023-06-22T08:52:06;11.25;;;2.50;;
77705;SDS011;66874;45.274;5.880;2023-06-22T08:54:32;15.13;;;3.13;;
77705;SDS011;66874;45.274;5.880;2023-06-22T08:56:59;16.52;;;3.38;;
77705;SDS011;66874;45.274;5.880;2023-06-22T08:59:25;10.23;;;2.70;;
77705;SDS011;66874;45.274;5.880;2023-06-22T09:01:51;12.18;;;2.90;;
77705;SDS011;66874;45.274;5.880;2023-06-22T09:04:16;9.50;;;2.75;;
77705;SDS011;66874;45.274;5.880;2023-06-22T09:06:41;15.32;;;3.63;;
77705;SDS011;66874;45.274;5.880;2023-06-22T09:09:12;7.00;;;2.10;;
77705;SDS011;66874;45.274;5.880;2023-06-22T09:11:38;8.65;;;2.38;;
77705;SDS011;66874;45.274;5.880;2023-06-22T09:14:03;10.30;;;2.20;;
77705;SDS011;66874;45.274;5.880;2023-06-22T09:16:29;7.22;;;2.28;;
77705;SDS011;66874;45.274;5.880;2023-06-22T09:18:55;13.52;;;2.75;;
77705;SDS011;66874;45.274;5.880;2023-06-22T09:21:20;8.50;;;2.22;;
77705;SDS011;66874;45.274;5.880;2023-06-22T09:23:46;8.10;;;2.22;;
77705;SDS011;66874;45.274;5.880;2023-06-22T09:26:15;11.95;;;3.25;;
77705;SDS011;66874;45.274;5.880;2023-06-22T09:28:41;12.85;;;2.50;;
77705;SDS011;66874;45.274;5.880;2023-06-22T09:31:06;13.18;;;3.35;;
77705;SDS011;66874;45.274;5.880;2023-06-22T09:33:31;8.10;;;2.75;;
77705;SDS011;66874;45.274;5.880;2023-06-22T09:35:57;11.00;;;2.80;;
77705;SDS011;66874;45.274;5.880;2023-06-22T09:38:22;10.90;;;2.42;;
77705;SDS011;66874;45.274;5.880;2023-06-22T09:40:47;8.80;;;2.25;;
77705;SDS011;66874;45.274;5.880;2023-06-22T09:43:13;8.68;;;2.95;;
77705;SDS011;66874;45.274;5.880;2023-06-22T09:45:38;9.90;;;2.25;;
77705;SDS011;66874;45.274;5.880;2023-06-22T09:48:04;6.57;;;2.45;;
77705;SDS011;66874;45.274;5.880;2023-06-22T09:50:29;10.77;;;3.97;;
77705;SDS011;66874;45.274;5.880;2023-06-22T09:52:55;11.90;;;2.88;;
77705;SDS011;66874;45.274;5.880;2023-06-22T09:55:20;12.27;;;2.38;;
77705;SDS011;66874;45.274;5.880;2023-06-22T09:57:46;10.75;;;2.53;;
77705;SDS011;66874;45.274;5.880;2023-06-22T10:00:12;13.93;;;2.50;;
77705;SDS011;66874;45.274;5.880;2023-06-22T10:02:41;10.05;;;2.60;;
77705;SDS011;66874;45.274;5.880;2023-06-22T10:05:07;13.38;;;2.45;;
77705;SDS011;66874;45.274;5.880;2023-06-22T10:07:33;17.23;;;2.83;;
77705;SDS011;66874;45.274;5.880;2023-06-22T10:09:58;10.70;;;3.47;;
77705;SDS011;66874;45.274;5.880;2023-06-22T10:12:25;14.35;;;3.08;;
77705;SDS011;66874;45.274;5.880;2023-06-22T10:14:52;10.95;;;2.78;;
77705;SDS011;66874;45.274;5.880;2023-06-22T10:17:18;8.15;;;2.95;;
77705;SDS011;66874;45.274;5.880;2023-06-22T10:19:43;10.00;;;3.15;;
77705;SDS011;66874;45.274;5.880;2023-06-22T10:22:08;11.48;;;3.20;;
77705;SDS011;66874;45.274;5.880;2023-06-22T10:24:34;11.40;;;2.97;;
77705;SDS011;66874;45.274;5.880;2023-06-22T10:26:59;11.90;;;2.42;;
77705;SDS011;66874;45.274;5.880;2023-06-22T10:29:25;11.85;;;3.38;;
77705;SDS011;66874;45.274;5.880;2023-06-22T10:31:50;14.48;;;2.95;;
77705;SDS011;66874;45.274;5.880;2023-06-22T10:34:15;9.88;;;2.80;;
77705;SDS011;66874;45.274;5.880;2023-06-22T10:36:41;9.50;;;2.70;;
77705;SDS011;66874;45.274;5.880;2023-06-22T10:39:07;13.15;;;2.95;;
77705;SDS011;66874;45.274;5.880;2023-06-22T10:41:32;16.95;;;4.15;;
77705;SDS011;66874;45.274;5.880;2023-06-22T10:43:57;11.30;;;3.28;;
77705;SDS011;66874;45.274;5.880;2023-06-22T10:46:26;10.00;;;3.47;;
77705;SDS011;66874;45.274;5.880;2023-06-22T10:48:52;12.68;;;3.45;;
77705;SDS011;66874;45.274;5.880;2023-06-22T10:51:20;12.18;;;2.80;;
77705;SDS011;66874;45.274;5.880;2023-06-22T10:53:45;8.93;;;3.05;;
77705;SDS011;66874;45.274;5.880;2023-06-22T10:56:11;10.75;;;3.10;;
77705;SDS011;66874;45.274;5.880;2023-06-22T10:58:36;13.32;;;2.78;;
77705;SDS011;66874;45.274;5.880;2023-06-22T11:01:02;15.43;;;4.32;;
77705;SDS011;66874;45.274;5.880;2023-06-22T11:03:28;9.18;;;2.85;;
77705;SDS011;66874;45.274;5.880;2023-06-22T11:05:53;8.90;;;2.75;;
77705;SDS011;66874;45.274;5.880;2023-06-22T11:08:19;14.93;;;2.97;;
77705;SDS011;66874;45.274;5.880;2023-06-22T11:10:44;8.05;;;3.28;;
77705;SDS011;66874;45.274;5.880;2023-06-22T11:13:10;9.20;;;2.90;;
77705;SDS011;66874;45.274;5.880;2023-06-22T11:15:36;11.15;;;4.43;;
77705;SDS011;66874;45.274;5.880;2023-06-22T11:18:01;18.25;;;3.28;;
77705;SDS011;66874;45.274;5.880;2023-06-22T11:20:27;13.75;;;4.55;;
77705;SDS011;66874;45.274;5.880;2023-06-22T11:22:52;9.73;;;2.92;;
77705;SDS011;66874;45.274;5.880;2023-06-22T11:25:17;15.30;;;3.42;;
77705;SDS011;66874;45.274;5.880;2023-06-22T11:27:43;14.02;;;2.88;;
77705;SDS011;66874;45.274;5.880;2023-06-22T11:30:08;9.95;;;3.13;;
77705;SDS011;66874;45.274;5.880;2023-06-22T11:32:34;10.48;;;3.28;;
77705;SDS011;66874;45.274;5.880;2023-06-22T11:34:59;8.18;;;3.40;;
77705;SDS011;66874;45.274;5.880;2023-06-22T11:37:25;9.15;;;2.88;;
77705;SDS011;66874;45.274;5.880;2023-06-22T11:39:51;10.45;;;3.55;;
77705;SDS011;66874;45.274;5.880;2023-06-22T11:42:18;7.53;;;3.08;;
77705;SDS011;66874;45.274;5.880;2023-06-22T11:44:43;10.48;;;2.75;;
77705;SDS011;66874;45.274;5.880;2023-06-22T11:47:09;10.25;;;3.47;;
77705;SDS011;66874;45.274;5.880;2023-06-22T11:49:34;12.68;;;3.45;;
77705;SDS011;66874;45.274;5.880;2023-06-22T11:51:59;8.75;;;3.75;;
77705;SDS011;66874;45.274;5.880;2023-06-22T11:54:25;15.05;;;2.92;;
77705;SDS011;66874;45.274;5.880;2023-06-22T11:56:50;9.55;;;3.03;;
77705;SDS011;66874;45.274;5.880;2023-06-22T11:59:15;10.98;;;3.38;;
77705;SDS011;66874;45.274;5.880;2023-06-22T12:01:41;12.18;;;3.65;;
77705;SDS011;66874;45.274;5.880;2023-06-22T12:04:06;10.82;;;2.75;;
77705;SDS011;66874;45.274;5.880;2023-06-22T12:06:32;9.35;;;3.33;;
77705;SDS011;66874;45.274;5.880;2023-06-22T12:08:58;9.70;;;2.67;;
77705;SDS011;66874;45.274;5.880;2023-06-22T12:11:23;9.25;;;2.80;;
77705;SDS011;66874;45.274;5.880;2023-06-22T12:13:49;9.90;;;2.92;;
77705;SDS011;66874;45.274;5.880;2023-06-22T12:16:14;10.63;;;3.13;;
77705;SDS011;66874;45.274;5.880;2023-06-22T12:18:40;14.63;;;3.20;;
77705;SDS011;66874;45.274;5.880;2023-06-22T12:21:05;10.68;;;2.88;;
77705;SDS011;66874;45.274;5.880;2023-06-22T12:23:30;7.90;;;2.88;;
77705;SDS011;66874;45.274;5.880;2023-06-22T12:25:56;10.52;;;3.00;;
77705;SDS011;66874;45.274;5.880;2023-06-22T12:28:21;14.65;;;3.53;;
77705;SDS011;66874;45.274;5.880;2023-06-22T12:30:48;7.93;;;2.80;;
77705;SDS011;66874;45.274;5.880;2023-06-22T12:33:13;19.30;;;3.63;;
77705;SDS011;66874;45.274;5.880;2023-06-22T12:35:39;4.40;;;2.47;;
77705;SDS011;66874;45.274;5.880;2023-06-22T12:38:04;9.77;;;3.00;;
77705;SDS011;66874;45.274;5.880;2023-06-22T12:40:32;8.90;;;2.83;;
77705;SDS011;66874;45.274;5.880;2023-06-22T12:42:58;7.37;;;2.47;;
77705;SDS011;66874;45.274;5.880;2023-06-22T12:45:23;11.25;;;2.85;;
77705;SDS011;66874;45.274;5.880;2023-06-22T12:47:50;10.40;;;2.97;;
77705;SDS011;66874;45.274;5.880;2023-06-22T12:50:15;10.88;;;2.83;;
77705;SDS011;66874;45.274;5.880;2023-06-22T12:52:41;12.02;;;2.72;;
77705;SDS011;66874;45.274;5.880;2023-06-22T12:55:06;9.45;;;2.55;;
77705;SDS011;66874;45.274;5.880;2023-06-22T12:57:32;10.18;;;3.65;;
77705;SDS011;66874;45.274;5.880;2023-06-22T12:59:58;10.93;;;2.33;;
77705;SDS011;66874;45.274;5.880;2023-06-22T13:02:25;13.32;;;3.35;;
77705;SDS011;66874;45.274;5.880;2023-06-22T13:04:50;8.25;;;4.47;;
77705;SDS011;66874;45.274;5.880;2023-06-22T13:07:16;11.05;;;2.20;;
77705;SDS011;66874;45.274;5.880;2023-06-22T13:09:41;6.33;;;2.27;;
77705;SDS011;66874;45.274;5.880;2023-06-22T13:12:07;8.07;;;2.25;;
77705;SDS011;66874;45.274;5.880;2023-06-22T13:14:32;10.67;;;2.60;;
77705;SDS011;66874;45.274;5.880;2023-06-22T13:16:58;10.07;;;2.65;;
77705;SDS011;66874;45.274;5.880;2023-06-22T13:19:23;5.60;;;2.50;;
77705;SDS011;66874;45.274;5.880;2023-06-22T13:21:49;9.68;;;2.67;;
77705;SDS011;66874;45.274;5.880;2023-06-22T13:24:14;7.93;;;2.72;;
77705;SDS011;66874;45.274;5.880;2023-06-22T13:26:41;6.45;;;3.00;;
77705;SDS011;66874;45.274;5.880;2023-06-22T13:29:06;8.17;;;2.80;;
77705;SDS011;66874;45.274;5.880;2023-06-22T13:31:32;12.10;;;2.90;;
77705;SDS011;66874;45.274;5.880;2023-06-22T13:33:57;13.20;;;3.80;;
77705;SDS011;66874;45.274;5.880;2023-06-22T13:36:23;13.07;;;2.70;;
77705;SDS011;66874;45.274;5.880;2023-06-22T13:38:48;11.00;;;3.20;;
77705;SDS011;66874;45.274;5.880;2023-06-22T13:41:14;10.38;;;3.03;;
77705;SDS011;66874;45.274;5.880;2023-06-22T13:43:39;10.15;;;4.05;;
77705;SDS011;66874;45.274;5.880;2023-06-22T13:46:05;18.85;;;4.85;;
77705;SDS011;66874;45.274;5.880;2023-06-22T13:48:30;10.65;;;3.10;;
77705;SDS011;66874;45.274;5.880;2023-06-22T13:50:55;9.52;;;3.15;;
77705;SDS011;66874;45.274;5.880;2023-06-22T13:53:21;9.93;;;2.88;;
77705;SDS011;66874;45.274;5.880;2023-06-22T13:55:46;11.98;;;3.35;;
77705;SDS011;66874;45.274;5.880;2023-06-22T13:58:12;12.35;;;3.47;;
77705;SDS011;66874;45.274;5.880;2023-06-22T14:00:38;10.98;;;3.35;;
77705;SDS011;66874;45.274;5.880;2023-06-22T14:03:03;16.00;;;4.38;;
77705;SDS011;66874;45.274;5.880;2023-06-22T14:05:29;13.25;;;3.35;;
77705;SDS011;66874;45.274;5.880;2023-06-22T14:07:54;11.18;;;3.72;;
77705;SDS011;66874;45.274;5.880;2023-06-22T14:10:20;8.18;;;2.40;;
77705;SDS011;66874;45.274;5.880;2023-06-22T14:12:45;8.63;;;1.80;;
77705;SDS011;66874;45.274;5.880;2023-06-22T14:15:10;11.40;;;2.85;;
77705;SDS011;66874;45.274;5.880;2023-06-22T14:17:36;5.32;;;1.58;;
77705;SDS011;66874;45.274;5.880;2023-06-22T14:20:01;6.70;;;1.80;;
77705;SDS011;66874;45.274;5.880;2023-06-22T14:22:28;5.47;;;1.30;;
77705;SDS011;66874;45.274;5.880;2023-06-22T14:24:54;3.25;;;1.08;;
77705;SDS011;66874;45.274;5.880;2023-06-22T14:27:22;2.10;;;0.90;;
77705;SDS011;66874;45.274;5.880;2023-06-22T14:29:48;2.97;;;1.20;;
77705;SDS011;66874;45.274;5.880;2023-06-22T14:32:13;3.95;;;0.93;;
77705;SDS011;66874;45.274;5.880;2023-06-22T14:34:38;4.10;;;1.15;;
77705;SDS011;66874;45.274;5.880;2023-06-22T14:37:07;6.68;;;1.30;;
77705;SDS011;66874;45.274;5.880;2023-06-22T14:39:34;7.22;;;1.23;;
77705;SDS011;66874;45.274;5.880;2023-06-22T14:42:00;3.05;;;1.38;;
77705;SDS011;66874;45.274;5.880;2023-06-22T14:44:26;5.38;;;0.98;;
77705;SDS011;66874;45.274;5.880;2023-06-22T14:46:54;7.32;;;1.70;;
77705;SDS011;66874;45.274;5.880;2023-06-22T14:49:19;5.10;;;1.23;;
77705;SDS011;66874;45.274;5.880;2023-06-22T14:51:45;4.35;;;1.27;;